createdAt,value
2022-09-09T00:00:36.317Z,5075.97
2022-09-09T00:02:16.652Z,7375.31
2022-09-09T00:03:24.526Z,9015.75
2022-09-09T00:04:31.167Z,8029.44
2022-09-09T00:05:56.015Z,8031.75
2022-09-09T00:07:25.845Z,8031.22
2022-09-09T00:08:55.217Z,10002.00
2022-09-09T00:10:12.229Z,9017.75
2022-09-09T00:11:28.122Z,10329.78
2022-09-09T00:12:52.849Z,11973.50
2022-09-09T00:13:57.901Z,11312.91
2022-09-09T00:15:14.035Z,9015.63
2022-09-09T00:16:25.673Z,6388.47
2022-09-09T00:17:43.959Z,6061.06
2022-09-09T00:18:46.333Z,7697.75
2022-09-09T00:19:57.407Z,5075.88
2022-09-09T00:21:08.454Z,7045.31
2022-09-09T00:22:20.256Z,5732.09
2022-09-09T00:23:31.573Z,7701.47
2022-09-09T00:24:42.998Z,8686.56
2022-09-09T00:25:54.588Z,8029.25
2022-09-09T00:27:05.460Z,8029.59
2022-09-09T00:28:20.535Z,10001.22
2022-09-09T00:30:21.418Z,8358.44
2022-09-09T00:31:30.316Z,9672.47
2022-09-09T00:32:34.420Z,8356.34
2022-09-09T00:33:37.327Z,8028.34
2022-09-09T00:34:53.406Z,8030.69
2022-09-09T00:35:58.736Z,11314.25
2022-09-09T00:37:00.907Z,11638.47
2022-09-09T00:38:13.624Z,9343.50
2022-09-09T00:39:38.394Z,7702.84
2022-09-09T00:40:53.449Z,7702.25
2022-09-09T00:42:19.220Z,10654.06
2022-09-09T00:43:32.806Z,10659.59
2022-09-09T00:44:38.175Z,9014.97
2022-09-09T00:46:19.329Z,6061.63
2022-09-09T00:47:41.608Z,7375.31
2022-09-09T00:49:24.217Z,8031.75
2022-09-09T00:50:50.441Z,9345.97
2022-09-09T00:52:31.486Z,9017.09
2022-09-09T00:53:52.041Z,10333.03
2022-09-09T00:55:04.086Z,12954.63
2022-09-09T00:56:20.245Z,11645.81
2022-09-09T00:57:36.036Z,11317.09
2022-09-09T00:58:38.536Z,12624.78
2022-09-09T00:59:48.824Z,11315.59
2022-09-09T01:01:02.807Z,11315.59
2022-09-09T01:02:43.796Z,13618.13
2022-09-09T01:03:54.354Z,13610.19
2022-09-09T01:05:06.508Z,10000.19
2022-09-09T01:06:34.845Z,10330.56
2022-09-09T01:07:37.354Z,12295.06
2022-09-09T01:09:17.087Z,8688.09
2022-09-09T01:10:31.539Z,8687.09
2022-09-09T01:12:02.951Z,9016.91
2022-09-09T01:13:16.248Z,10001.59
2022-09-09T01:14:26.333Z,12304.06
2022-09-09T01:15:32.023Z,10655.44
2022-09-09T01:16:35.201Z,10652.81
2022-09-09T01:18:02.485Z,10658.97
2022-09-09T01:19:13.505Z,11970.22
2022-09-09T01:20:22.363Z,11312.47
2022-09-09T01:21:45.716Z,10984.94
2022-09-09T01:22:51.842Z,16905.31
2022-09-09T01:24:06.912Z,14933.16
2022-09-09T01:26:09.225Z,15587.09
2022-09-09T01:27:11.754Z,17553.41
2022-09-09T01:28:36.487Z,14271.41
2022-09-09T01:29:42.904Z,15909.00
2022-09-09T01:30:45.707Z,13935.50
2022-09-09T01:31:57.430Z,11971.19
2022-09-09T01:33:01.337Z,13938.00
2022-09-09T01:34:09.566Z,13606.47
2022-09-09T01:35:28.941Z,13285.28
2022-09-09T01:36:43.631Z,14921.38
2022-09-09T01:37:46.236Z,16235.63
2022-09-09T01:38:48.779Z,10648.09
2022-09-09T01:39:51.795Z,9008.00
2022-09-09T01:40:54.638Z,9665.59
2022-09-09T01:42:02.657Z,11307.22
2022-09-09T01:43:05.411Z,11963.03
2022-09-09T01:44:09.162Z,12293.56
2022-09-09T01:45:13.257Z,13932.03
2022-09-09T01:46:16.023Z,12948.97
2022-09-09T01:47:42.870Z,13277.28
2022-09-09T01:49:11.858Z,14922.00
2022-09-09T01:50:16.633Z,12624.00
2022-09-09T01:51:19.062Z,12949.16
2022-09-09T01:52:21.418Z,10977.38
2022-09-09T01:53:24.276Z,10650.66
2022-09-09T01:54:30.479Z,9339.69
2022-09-09T01:55:42.534Z,9342.31
2022-09-09T01:56:49.468Z,12293.56
2022-09-09T01:58:02.624Z,10656.34
2022-09-09T01:59:16.462Z,11970.38
2022-09-09T02:00:19.056Z,12950.22
2022-09-09T02:01:55.774Z,10327.91
2022-09-09T02:02:57.984Z,11635.44
2022-09-09T02:04:38.709Z,9013.59
2022-09-09T02:05:55.792Z,11641.00
2022-09-09T02:07:02.558Z,13934.72
2022-09-09T02:08:12.252Z,11969.59
2022-09-09T02:09:27.422Z,16903.78
2022-09-09T02:10:43.706Z,14927.72
2022-09-09T02:12:14.551Z,14928.66
2022-09-09T02:13:23.482Z,16564.16
2022-09-09T02:14:31.776Z,14596.47
2022-09-09T02:15:43.773Z,13281.66
2022-09-09T02:16:54.936Z,13939.34
2022-09-09T02:18:05.294Z,14594.97
2022-09-09T02:19:18.050Z,13280.66
2022-09-09T02:20:42.105Z,14590.72
2022-09-09T02:21:46.675Z,13608.22
2022-09-09T02:22:51.981Z,12950.75
2022-09-09T02:23:58.408Z,14591.13
2022-09-09T02:25:03.833Z,13605.81
2022-09-09T02:26:08.785Z,14261.94
2022-09-09T02:27:13.147Z,12947.56
2022-09-09T02:28:19.240Z,9993.28
2022-09-09T02:29:48.154Z,9338.09
2022-09-09T02:30:56.224Z,11633.34
2022-09-09T02:32:09.136Z,10980.19
2022-09-09T02:33:15.293Z,11961.44
2022-09-09T02:34:25.403Z,9993.88
2022-09-09T02:35:31.574Z,11636.06
2022-09-09T02:36:36.499Z,9993.34
2022-09-09T02:37:40.773Z,11306.50
2022-09-09T02:38:51.567Z,8354.53
2022-09-09T02:39:56.403Z,10977.47
2022-09-09T02:40:59.595Z,11632.97
2022-09-09T02:42:01.838Z,12290.09
2022-09-09T02:43:07.721Z,11961.28
2022-09-09T02:44:18.887Z,10652.81
2022-09-09T02:45:32.710Z,9667.38
2022-09-09T02:46:58.946Z,9668.72
2022-09-09T02:48:29.429Z,11968.63
2022-09-09T02:49:40.377Z,11311.94
2022-09-09T02:51:06.366Z,11312.25
2022-09-09T02:52:13.020Z,12292.66
2022-09-09T02:53:35.312Z,9340.34
2022-09-09T02:54:40.039Z,11965.91
2022-09-09T02:55:49.338Z,10982.50
2022-09-09T02:56:55.330Z,12624.00
2022-09-09T02:58:06.994Z,14595.28
2022-09-09T02:59:10.955Z,13931.66
2022-09-09T03:00:14.368Z,13605.81
2022-09-09T03:01:17.448Z,15247.53
2022-09-09T03:02:19.866Z,14261.75
2022-09-09T03:03:27.187Z,14262.44
2022-09-09T03:04:31.030Z,14592.72
2022-09-09T03:05:33.527Z,14921.38
2022-09-09T03:06:36.585Z,13934.34
2022-09-09T03:07:50.671Z,15905.75
2022-09-09T03:08:54.428Z,15907.09
2022-09-09T03:10:00.955Z,15248.16
2022-09-09T03:11:03.775Z,15578.91
2022-09-09T03:12:09.073Z,16894.16
2022-09-09T03:13:12.018Z,16894.03
2022-09-09T03:14:15.227Z,16565.09
2022-09-09T03:15:17.677Z,15247.09
2022-09-09T03:16:20.528Z,13605.06
2022-09-09T03:17:25.631Z,14591.31
2022-09-09T03:18:30.075Z,16235.84
2022-09-09T03:19:33.093Z,17224.75
2022-09-09T03:20:35.576Z,19856.63
2022-09-09T03:21:37.694Z,18870.44
2022-09-09T03:22:40.066Z,21175.81
2022-09-09T03:23:42.509Z,21172.41
2022-09-09T03:24:44.675Z,21170.56
2022-09-09T03:25:51.000Z,19536.97
2022-09-09T03:26:56.848Z,22492.19
2022-09-09T03:27:58.934Z,22818.38
2022-09-09T03:29:01.516Z,21173.66
2022-09-09T03:30:06.187Z,22822.25
2022-09-09T03:31:11.295Z,23811.13
2022-09-09T03:32:16.527Z,23474.53
2022-09-09T03:33:18.768Z,22158.59
2022-09-09T03:34:21.780Z,22816.19
2022-09-09T03:35:23.887Z,20508.94
2022-09-09T03:36:27.668Z,22823.25
2022-09-09T03:37:30.301Z,25780.41
2022-09-09T03:38:33.077Z,22816.19
2022-09-09T03:39:35.428Z,23805.31
2022-09-09T03:40:37.804Z,24135.47
2022-09-09T03:41:40.013Z,25452.19
2022-09-09T03:42:42.745Z,24463.13
2022-09-09T03:43:45.589Z,25123.22
2022-09-09T03:44:51.018Z,25125.47
2022-09-09T03:45:57.850Z,27104.53
2022-09-09T03:47:01.684Z,26766.59
2022-09-09T03:48:05.781Z,24791.50
2022-09-09T03:49:11.103Z,22819.56
2022-09-09T03:50:13.326Z,25780.97
2022-09-09T03:51:22.591Z,25452.00
2022-09-09T03:52:27.312Z,25450.47
2022-09-09T03:53:30.176Z,25781.56
2022-09-09T03:54:32.685Z,24792.22
2022-09-09T03:55:34.865Z,25123.97
2022-09-09T03:56:37.819Z,26442.16
2022-09-09T03:57:40.062Z,24134.03
2022-09-09T03:58:44.716Z,25780.22
2022-09-09T03:59:48.484Z,24462.03
2022-09-09T04:00:59.642Z,23819.44
2022-09-09T04:02:03.576Z,27435.13
2022-09-09T04:03:06.910Z,27752.00
2022-09-09T04:04:09.907Z,22810.97
2022-09-09T04:05:12.417Z,23798.63
2022-09-09T04:06:18.147Z,24461.31
2022-09-09T04:07:22.477Z,25107.50
2022-09-09T04:08:28.191Z,19848.97
2022-09-09T04:09:30.577Z,20504.16
2022-09-09T04:10:32.674Z,17537.88
2022-09-09T04:11:35.362Z,17873.16
2022-09-09T04:12:37.550Z,21164.06
2022-09-09T04:13:40.235Z,22805.91
2022-09-09T04:14:44.605Z,23140.72
2022-09-09T04:15:57.652Z,22817.19
2022-09-09T04:17:00.556Z,24455.13
2022-09-09T04:18:02.852Z,25114.81
2022-09-09T04:19:07.551Z,25448.59
2022-09-09T04:20:13.053Z,24781.72
2022-09-09T04:21:16.374Z,24784.84
2022-09-09T04:22:18.474Z,25442.53
2022-09-09T04:23:21.555Z,25767.91
2022-09-09T04:24:23.790Z,22803.22
2022-09-09T04:25:26.230Z,22474.78
2022-09-09T04:26:28.450Z,24778.97
2022-09-09T04:27:30.615Z,25439.47
2022-09-09T04:28:36.399Z,24792.97
2022-09-09T04:29:39.935Z,27088.09
2022-09-09T04:30:44.810Z,27094.78
2022-09-09T04:31:48.025Z,25106.38
2022-09-09T04:32:50.291Z,23132.53
2022-09-09T04:33:53.345Z,24122.22
2022-09-09T04:34:55.503Z,24452.41
2022-09-09T04:35:58.011Z,23129.44
2022-09-09T04:37:02.174Z,24120.44
2022-09-09T04:38:05.153Z,23458.56
2022-09-09T04:39:08.601Z,23131.50
2022-09-09T04:40:10.846Z,23131.31
2022-09-09T04:41:13.449Z,23459.94
2022-09-09T04:42:20.217Z,23458.91
2022-09-09T04:43:24.021Z,24448.94
2022-09-09T04:44:26.578Z,23789.44
2022-09-09T04:45:29.785Z,24117.41
2022-09-09T04:46:32.006Z,24778.97
2022-09-09T04:47:36.900Z,25106.38
2022-09-09T04:48:39.312Z,26755.56
2022-09-09T04:49:43.286Z,27738.88
2022-09-09T04:50:45.458Z,24777.84
2022-09-09T04:51:50.552Z,25445.94
2022-09-09T04:52:53.399Z,25764.06
2022-09-09T04:53:55.562Z,26093.59
2022-09-09T04:54:57.973Z,26424.16
2022-09-09T04:56:07.797Z,24792.41
2022-09-09T04:57:18.497Z,29722.50
2022-09-09T04:58:23.496Z,29059.81
2022-09-09T04:59:26.319Z,28072.56
2022-09-09T05:00:31.980Z,28403.22
2022-09-09T05:01:35.029Z,28404.06
2022-09-09T05:02:40.761Z,30050.63
2022-09-09T05:03:43.119Z,28404.06
2022-09-09T05:04:47.897Z,29722.06
2022-09-09T05:05:50.045Z,28730.22
2022-09-09T05:06:52.196Z,29393.91
2022-09-09T05:07:54.306Z,31041.81
2022-09-09T05:08:56.480Z,30712.25
2022-09-09T05:10:06.039Z,32026.09
2022-09-09T05:11:20.234Z,28418.19
2022-09-09T05:12:24.143Z,30047.47
2022-09-09T05:13:28.819Z,25764.06
2022-09-09T05:14:31.211Z,24775.63
2022-09-09T05:15:36.470Z,24773.97
2022-09-09T05:16:39.229Z,25106.00
2022-09-09T05:17:41.483Z,24446.78
2022-09-09T05:18:44.495Z,23463.41
2022-09-09T05:19:46.652Z,22802.72
2022-09-09T05:20:51.389Z,22148.81
2022-09-09T05:21:54.016Z,24121.34
2022-09-09T05:23:02.113Z,25770.97
2022-09-09T05:24:06.329Z,26760.19
2022-09-09T05:25:08.988Z,27753.25
2022-09-09T05:26:17.484Z,26774.41
2022-09-09T05:27:21.990Z,29080.88
2022-09-09T05:28:26.755Z,29729.91
2022-09-09T05:29:29.448Z,28741.06
2022-09-09T05:30:32.678Z,31052.19
2022-09-09T05:31:37.659Z,29727.91
2022-09-09T05:32:44.814Z,29073.66
2022-09-09T05:33:50.371Z,30731.56
2022-09-09T05:34:53.199Z,30061.56
2022-09-09T05:36:00.190Z,28763.16
2022-09-09T05:37:02.327Z,32379.59
2022-09-09T05:38:04.535Z,33366.81
2022-09-09T05:39:06.758Z,34034.28
2022-09-09T05:40:12.043Z,32706.75
2022-09-09T05:41:16.763Z,33044.44
2022-09-09T05:42:18.900Z,35689.50
2022-09-09T05:43:21.322Z,37350.31
2022-09-09T05:44:25.000Z,39009.59
2022-09-09T05:45:27.132Z,41651.19
2022-09-09T05:46:29.348Z,40011.63
2022-09-09T05:47:32.028Z,43329.63
2022-09-09T05:48:38.353Z,46662.28
2022-09-09T05:49:40.918Z,49628.66
2022-09-09T05:50:43.962Z,47324.84
2022-09-09T05:51:46.322Z,50622.50
2022-09-09T05:52:50.894Z,47986.72
2022-09-09T05:53:53.529Z,55631.75
2022-09-09T05:54:57.888Z,51641.13
2022-09-09T05:56:08.625Z,51016.97
2022-09-09T05:57:10.837Z,63362.72
2022-09-09T05:58:13.622Z,64303.78
2022-09-09T05:59:15.895Z,57285.88
2022-09-09T06:00:18.357Z,53318.34
2022-09-09T06:01:28.160Z,54693.75
2022-09-09T06:02:30.657Z,64681.00
2022-09-09T06:03:32.905Z,72379.09
2022-09-09T06:04:35.229Z,77072.56
2022-09-09T06:05:38.286Z,83433.97
2022-09-09T06:06:40.880Z,86787.72
2022-09-09T06:07:52.943Z,88825.06
2022-09-09T06:08:58.450Z,88179.47
2022-09-09T06:10:02.557Z,91827.47
2022-09-09T06:11:07.861Z,90549.41
2022-09-09T06:12:10.144Z,96932.00
2022-09-09T06:13:12.610Z,108367.28
2022-09-09T06:14:15.548Z,99614.13
2022-09-09T06:15:21.049Z,100621.53
2022-09-09T06:16:25.773Z,107460.94
2022-09-09T06:17:27.920Z,119270.44
2022-09-09T06:18:30.563Z,121321.53
2022-09-09T06:19:32.703Z,137621.69
2022-09-09T06:20:35.854Z,131368.06
2022-09-09T06:21:38.521Z,114803.53
2022-09-09T06:22:43.032Z,118246.94
2022-09-09T06:23:45.662Z,123372.25
2022-09-09T06:24:47.832Z,136638.66
2022-09-09T06:25:50.025Z,148894.72
2022-09-09T06:26:52.127Z,150324.56
2022-09-09T06:27:58.800Z,150440.41
2022-09-09T06:29:03.389Z,150514.81
2022-09-09T06:30:05.945Z,150509.91
2022-09-09T06:31:12.452Z,150627.06
2022-09-09T06:32:14.759Z,150614.88
2022-09-09T06:33:16.873Z,150614.88
2022-09-09T06:34:18.969Z,150609.94
2022-09-09T06:35:25.381Z,150589.25
2022-09-09T06:36:32.721Z,150607.50
2022-09-09T06:37:35.817Z,150507.47
2022-09-09T06:38:38.883Z,150568.50
2022-09-09T06:39:41.410Z,150514.81
2022-09-09T06:40:44.963Z,150461.16
2022-09-09T06:41:48.298Z,150414.78
2022-09-09T06:43:10.332Z,150444.06
2022-09-09T06:44:17.593Z,150416.06
2022-09-09T06:45:20.643Z,150390.44
2022-09-09T06:46:33.261Z,150441.63
2022-09-09T06:47:36.525Z,150397.75
2022-09-09T06:48:41.824Z,150414.78
2022-09-09T06:49:48.304Z,150395.31
2022-09-09T06:50:51.018Z,150374.53
2022-09-09T06:51:54.147Z,150401.41
2022-09-09T06:52:56.945Z,150427.03
2022-09-09T06:54:03.051Z,150472.13
2022-09-09T06:55:06.090Z,150397.75
2022-09-09T06:56:16.095Z,150484.34
2022-09-09T06:57:36.361Z,150427.03
2022-09-09T06:58:44.066Z,150495.28
2022-09-09T06:59:49.792Z,150472.13
2022-09-09T07:00:52.000Z,150505.03
2022-09-09T07:01:56.268Z,150517.25
2022-09-09T07:02:59.363Z,150600.22
2022-09-09T07:04:02.842Z,150697.78
2022-09-09T07:05:09.101Z,150753.97
2022-09-09T07:06:16.133Z,151027.41
2022-09-09T07:07:18.799Z,151084.78
2022-09-09T07:08:21.451Z,151187.41
2022-09-09T07:09:24.751Z,151329.13
2022-09-09T07:10:28.502Z,151459.91
2022-09-09T07:11:33.794Z,151612.75
2022-09-09T07:12:36.009Z,151660.41
2022-09-09T07:13:38.681Z,151780.31
2022-09-09T07:14:40.869Z,151880.63
2022-09-09T07:15:44.266Z,151886.72
2022-09-09T07:16:47.743Z,151972.38
2022-09-09T07:17:52.123Z,151978.47
2022-09-09T07:18:58.603Z,152119.22
2022-09-09T07:20:01.197Z,151989.47
2022-09-09T07:21:04.719Z,152037.25
2022-09-09T07:22:07.394Z,152056.81
2022-09-09T07:23:10.961Z,152051.94
2022-09-09T07:24:13.714Z,152025.00
2022-09-09T07:25:18.957Z,151902.66
2022-09-09T07:26:24.372Z,152036.03
2022-09-09T07:27:27.736Z,151965.03
2022-09-09T07:28:32.710Z,151939.34
2022-09-09T07:29:34.963Z,152072.75
2022-09-09T07:30:37.412Z,152146.16
2022-09-09T07:31:40.978Z,152171.91
2022-09-09T07:32:46.999Z,152103.34
2022-09-09T07:33:49.681Z,152233.09
2022-09-09T07:34:52.678Z,152137.59
2022-09-09T07:35:55.253Z,152048.25
2022-09-09T07:36:58.438Z,151999.28
2022-09-09T07:38:02.061Z,152060.47
2022-09-09T07:39:07.732Z,152208.63
2022-09-09T07:40:11.301Z,152184.13
2022-09-09T07:41:20.141Z,152222.06
2022-09-09T07:42:22.654Z,152335.97
2022-09-09T07:43:27.392Z,152492.75
2022-09-09T07:44:29.657Z,152468.25
2022-09-09T07:45:39.409Z,152550.28
2022-09-09T07:46:42.489Z,152556.38
2022-09-09T07:47:46.454Z,152419.19
2022-09-09T07:48:52.151Z,152468.25
2022-09-09T07:49:56.877Z,152523.31
2022-09-09T07:51:13.058Z,152666.72
2022-09-09T07:52:18.100Z,152437.59
2022-09-09T07:53:23.962Z,152394.75
2022-09-09T07:54:27.166Z,152419.19
2022-09-09T07:55:29.628Z,152475.59
2022-09-09T07:56:33.589Z,152326.19
2022-09-09T07:57:37.126Z,152546.59
2022-09-09T07:58:41.492Z,152644.63
2022-09-09T07:59:43.697Z,152573.59
2022-09-09T08:00:46.032Z,152441.31
2022-09-09T08:01:54.386Z,152492.75
2022-09-09T08:02:59.512Z,152100.91
2022-09-09T08:04:05.476Z,152331.09
2022-09-09T08:05:08.346Z,152049.47
2022-09-09T08:06:12.965Z,152275.94
2022-09-09T08:07:17.058Z,152198.84
2022-09-09T08:08:24.733Z,152447.41
2022-09-09T08:09:29.774Z,152607.91
2022-09-09T08:10:39.160Z,152340.88
2022-09-09T08:11:41.700Z,152474.38
2022-09-09T08:13:01.401Z,152420.41
2022-09-09T08:14:08.722Z,152331.09
2022-09-09T08:15:11.047Z,152326.19
2022-09-09T08:16:16.317Z,152409.41
2022-09-09T08:17:19.044Z,152607.91
2022-09-09T08:18:21.154Z,152694.88
2022-09-09T08:19:23.656Z,152636.06
2022-09-09T08:20:26.189Z,152781.88
2022-09-09T08:21:30.334Z,153023.44
2022-09-09T08:22:34.114Z,152937.56
2022-09-09T08:23:37.243Z,152643.41
2022-09-09T08:24:40.282Z,152845.66
2022-09-09T08:25:43.118Z,152958.44
2022-09-09T08:26:48.369Z,152941.25
2022-09-09T08:27:50.858Z,152491.53
2022-09-09T08:28:54.992Z,152514.75
2022-09-09T08:29:57.562Z,152580.94
2022-09-09T08:31:17.309Z,152620.13
2022-09-09T08:32:20.386Z,152631.19
2022-09-09T08:33:22.509Z,152549.06
2022-09-09T08:34:27.073Z,152654.44
2022-09-09T08:35:33.428Z,152446.19
2022-09-09T08:36:41.670Z,152482.91
2022-09-09T08:37:43.873Z,152245.31
2022-09-09T08:38:56.164Z,152449.84
2022-09-09T08:39:58.404Z,152406.97
2022-09-09T08:41:34.192Z,152754.97
2022-09-09T08:42:45.922Z,152759.88
2022-09-09T08:43:51.549Z,152897.16
2022-09-09T08:45:17.006Z,152875.06
2022-09-09T08:46:30.725Z,153137.47
2022-09-09T08:47:40.733Z,153062.66
2022-09-09T08:48:59.058Z,152931.47
2022-09-09T08:50:25.785Z,152806.41
2022-09-09T08:51:34.410Z,152627.50
2022-09-09T08:52:45.003Z,152786.78
2022-09-09T08:53:49.629Z,152545.38
2022-09-09T08:54:52.994Z,152833.38
2022-09-09T08:56:04.478Z,153127.69
2022-09-09T08:57:32.057Z,152953.53
2022-09-09T08:58:36.389Z,152502.53
2022-09-09T08:59:42.394Z,152249.00
2022-09-09T09:01:10.882Z,152501.31
2022-09-09T09:02:31.877Z,152318.81
2022-09-09T09:04:00.915Z,152234.34
2022-09-09T09:05:10.638Z,151971.16
2022-09-09T09:06:18.633Z,151770.53
2022-09-09T09:07:38.998Z,151899.00
2022-09-09T09:09:01.109Z,152138.81
2022-09-09T09:10:41.057Z,152235.56
2022-09-09T09:11:52.546Z,152170.69
2022-09-09T09:12:54.894Z,152309.03
2022-09-09T09:14:10.978Z,152312.69
2022-09-09T09:15:27.311Z,152371.47
2022-09-09T09:16:44.266Z,152142.47
2022-09-09T09:17:46.724Z,152158.38
2022-09-09T09:18:48.909Z,152051.94
2022-09-09T09:19:51.213Z,151932.03
2022-09-09T09:21:11.415Z,152027.44
2022-09-09T09:22:33.868Z,151861.00
2022-09-09T09:23:46.513Z,151905.09
2022-09-09T09:25:01.602Z,152076.41
2022-09-09T09:26:10.122Z,151966.28
2022-09-09T09:27:19.395Z,152171.91
2022-09-09T09:28:29.870Z,152127.81
2022-09-09T09:29:56.709Z,152115.56
2022-09-09T09:31:08.203Z,152255.09
2022-09-09T09:32:17.467Z,152315.16
2022-09-09T09:33:33.756Z,152242.88
2022-09-09T09:34:36.501Z,152253.88
2022-09-09T09:35:41.943Z,152218.41
2022-09-09T09:37:02.771Z,152272.25
2022-09-09T09:41:04.118Z,152167.03
2022-09-09T09:42:15.057Z,152233.09
2022-09-09T09:43:25.718Z,152354.31
2022-09-09T09:44:33.243Z,152495.19
2022-09-09T09:46:07.328Z,152272.25
2022-09-09T09:47:19.502Z,152321.25
2022-09-09T09:48:29.461Z,151998.06
2022-09-09T09:49:33.182Z,152082.50
2022-09-09T09:50:36.210Z,152078.84
2022-09-09T09:51:38.855Z,152073.97
2022-09-09T09:52:43.357Z,152088.63
2022-09-09T09:53:46.503Z,152073.97
2022-09-09T09:54:51.358Z,151870.84
2022-09-09T09:56:03.843Z,152000.53
2022-09-09T09:57:11.632Z,152053.16
2022-09-09T09:58:18.552Z,152051.94
2022-09-09T09:59:39.204Z,151873.31
2022-09-09T10:00:53.085Z,151890.41
2022-09-09T10:02:17.573Z,151812.09
2022-09-09T10:03:28.028Z,151839.00
2022-09-09T10:04:31.272Z,151812.09
2022-09-09T10:05:36.977Z,151880.63
2022-09-09T10:06:45.181Z,151752.16
2022-09-09T10:07:47.617Z,151856.09
2022-09-09T10:08:49.705Z,151851.22
2022-09-09T10:09:57.493Z,151824.31
2022-09-09T10:11:22.047Z,151792.50
2022-09-09T10:12:59.647Z,151780.31
2022-09-09T10:14:18.394Z,151689.75
2022-09-09T10:15:39.465Z,151851.22
2022-09-09T10:17:09.881Z,151914.88
2022-09-09T10:18:34.897Z,151932.03
2022-09-09T10:19:38.629Z,151870.84
2022-09-09T10:21:13.588Z,152006.63
2022-09-09T10:22:28.832Z,152108.22
2022-09-09T10:24:08.281Z,152224.50
2022-09-09T10:25:19.458Z,152193.94
2022-09-09T10:26:50.869Z,152219.63
2022-09-09T10:28:20.109Z,152215.94
2022-09-09T10:29:40.319Z,152125.34
2022-09-09T10:30:55.486Z,151965.03
2022-09-09T10:32:07.569Z,151990.69
2022-09-09T10:33:38.248Z,151907.53
2022-09-09T10:35:13.133Z,152153.47
2022-09-09T10:36:22.042Z,152430.25
2022-09-09T10:37:27.126Z,152438.84
2022-09-09T10:38:46.998Z,152446.19
2022-09-09T10:40:01.638Z,152463.34
2022-09-09T10:41:21.318Z,152627.50
2022-09-09T10:42:31.737Z,152664.25
2022-09-09T10:43:45.840Z,152696.09
2022-09-09T10:45:09.348Z,152674.03
2022-09-09T10:46:20.451Z,152334.75
2022-09-09T10:47:59.890Z,152462.13
2022-09-09T10:49:26.953Z,152479.25
2022-09-09T10:51:07.172Z,152386.16
2022-09-09T10:52:42.215Z,152220.84
2022-09-09T10:54:14.792Z,152245.31
2022-09-09T10:55:29.214Z,152275.94
2022-09-09T10:56:32.013Z,152238.00
2022-09-09T10:57:55.158Z,152354.31
2022-09-09T10:59:23.586Z,152306.59
2022-09-09T11:00:37.952Z,152365.34
2022-09-09T11:01:50.356Z,152595.66
2022-09-09T11:03:03.193Z,152742.69
2022-09-09T11:04:18.389Z,152913.06
2022-09-09T11:05:25.309Z,153083.47
2022-09-09T11:06:35.450Z,153017.28
2022-09-09T11:07:51.718Z,152781.88
2022-09-09T11:08:57.037Z,152480.47
2022-09-09T11:10:07.365Z,152676.50
2022-09-09T11:11:22.577Z,152750.03
2022-09-09T11:12:25.785Z,152612.78
2022-09-09T11:13:59.167Z,152590.78
2022-09-09T11:15:10.308Z,152480.47
2022-09-09T11:16:41.168Z,152470.69
2022-09-09T11:17:51.701Z,152443.75
2022-09-09T11:19:03.404Z,152671.59
2022-09-09T11:20:08.056Z,152741.47
2022-09-09T11:21:23.335Z,152919.16
2022-09-09T11:22:34.817Z,152953.53
2022-09-09T11:23:45.251Z,153215.94
2022-09-09T11:25:16.323Z,153206.13
2022-09-09T11:26:33.117Z,152897.16
2022-09-09T11:27:56.355Z,153083.47
2022-09-09T11:29:38.123Z,153103.16
2022-09-09T11:31:23.288Z,152995.25
2022-09-09T11:32:28.002Z,152931.47
2022-09-09T11:33:50.173Z,153005.03
2022-09-09T11:35:12.434Z,153018.50
2022-09-09T11:36:44.168Z,152965.81
2022-09-09T11:38:06.045Z,152799.06
2022-09-09T11:39:23.255Z,152743.91
2022-09-09T11:40:27.027Z,152531.94
2022-09-09T11:41:38.160Z,152492.75
2022-09-09T11:42:40.311Z,152306.59
2022-09-09T11:43:47.726Z,152148.59
2022-09-09T11:44:49.959Z,152060.47
2022-09-09T11:46:00.334Z,151983.38
2022-09-09T11:47:03.565Z,151995.63
2022-09-09T11:48:08.952Z,151935.69
2022-09-09T11:49:29.363Z,152006.63
2022-09-09T11:50:37.549Z,152010.28
2022-09-09T11:51:40.707Z,151867.16
2022-09-09T11:52:48.965Z,151840.22
2022-09-09T11:53:56.913Z,151949.13
2022-09-09T11:55:11.457Z,151965.03
2022-09-09T11:56:15.499Z,151812.09
2022-09-09T11:57:36.465Z,151836.56
2022-09-09T11:58:42.417Z,151673.88
2022-09-09T11:59:53.323Z,151639.66
2022-09-09T12:00:55.413Z,151623.75
2022-09-09T12:02:15.850Z,151699.56
2022-09-09T12:03:36.813Z,151873.31
2022-09-09T12:04:40.716Z,151962.59
2022-09-09T12:05:46.974Z,151972.38
2022-09-09T12:06:51.921Z,151925.88
2022-09-09T12:07:59.579Z,151905.09
2022-09-09T12:09:13.244Z,151892.84
2022-09-09T12:10:27.342Z,151895.28
2022-09-09T12:11:31.602Z,151889.19
2022-09-09T12:12:39.285Z,151868.38
2022-09-09T12:13:53.973Z,151917.31
2022-09-09T12:15:03.120Z,151910.00
2022-09-09T12:16:06.533Z,151856.09
2022-09-09T12:17:21.666Z,151914.88
2022-09-09T12:18:26.589Z,151823.09
2022-09-09T12:19:28.709Z,151823.09
2022-09-09T12:20:34.958Z,151842.66
2022-09-09T12:21:42.252Z,151818.19
2022-09-09T12:23:02.604Z,151848.78
2022-09-09T12:24:14.037Z,151799.88
2022-09-09T12:25:34.576Z,151770.53
2022-09-09T12:26:49.912Z,151676.34
2022-09-09T12:28:02.935Z,151665.28
2022-09-09T12:29:20.185Z,151841.44
2022-09-09T12:30:24.169Z,151731.38
2022-09-09T12:31:56.089Z,151886.72
2022-09-09T12:33:12.594Z,151830.41
2022-09-09T12:34:21.354Z,151826.75
2022-09-09T12:35:29.056Z,151804.78
2022-09-09T12:36:34.170Z,151797.41
2022-09-09T12:37:40.858Z,151787.63
2022-09-09T12:38:44.578Z,151770.53
2022-09-09T12:39:52.442Z,151829.19
2022-09-09T12:40:56.930Z,151716.66
2022-09-09T12:41:59.094Z,151655.53
2022-09-09T12:43:02.312Z,151724.03
2022-09-09T12:44:10.690Z,151711.78
2022-09-09T12:45:18.658Z,151732.63
2022-09-09T12:46:34.772Z,151752.16
2022-09-09T12:47:46.899Z,151799.88
2022-09-09T12:48:49.040Z,151739.97
2022-09-09T12:49:52.094Z,151770.53
2022-09-09T12:50:55.245Z,151746.06
2022-09-09T12:51:58.375Z,151731.38
2022-09-09T12:53:04.781Z,151821.88
2022-09-09T12:54:07.322Z,151714.22
2022-09-09T12:55:19.427Z,151829.19
2022-09-09T12:56:28.304Z,151839.00
2022-09-09T12:57:37.105Z,151808.44
2022-09-09T12:58:40.923Z,151768.09
2022-09-09T12:59:46.209Z,151768.09
2022-09-09T13:00:53.314Z,151824.31
2022-09-09T13:02:00.060Z,151843.91
2022-09-09T13:03:15.645Z,151716.66
2022-09-09T13:04:23.169Z,151748.50
2022-09-09T13:05:37.137Z,151547.94
2022-09-09T13:06:39.358Z,151461.13
2022-09-09T13:07:41.470Z,151369.50
2022-09-09T13:08:44.573Z,151413.50
2022-09-09T13:09:50.434Z,151477.06
2022-09-09T13:11:02.938Z,151503.94
2022-09-09T13:12:08.196Z,151473.38
2022-09-09T13:13:26.923Z,151590.75
2022-09-09T13:14:38.289Z,151547.94
2022-09-09T13:15:40.614Z,151512.50
2022-09-09T13:16:43.232Z,151530.78
2022-09-09T13:17:56.066Z,151535.72
2022-09-09T13:19:01.345Z,151523.47
2022-09-09T13:20:05.404Z,151494.13
2022-09-09T13:21:07.841Z,151494.13
2022-09-09T13:22:33.894Z,151550.38
2022-09-09T13:23:38.271Z,151403.69
2022-09-09T13:24:40.570Z,151418.38
2022-09-09T13:25:54.299Z,151459.91